createdAt,value
2017-09-26T00:00:51.263Z,8.99
2017-09-26T00:01:51.872Z,8.94
2017-09-26T00:02:52.639Z,8.92
2017-09-26T00:03:53.248Z,9.02
2017-09-26T00:04:53.866Z,8.92
2017-09-26T00:05:54.473Z,8.94
2017-09-26T00:06:55.085Z,8.84
2017-09-26T00:07:55.842Z,8.87
2017-09-26T00:08:56.453Z,8.79
2017-09-26T00:09:57.067Z,8.69
2017-09-26T00:10:57.672Z,8.82
2017-09-26T00:11:58.312Z,8.74
2017-09-26T00:12:59.073Z,8.81
2017-09-26T00:13:59.682Z,8.67
2017-09-26T00:15:00.291Z,8.67
2017-09-26T00:16:00.905Z,8.69
2017-09-26T00:17:01.520Z,8.78
2017-09-26T00:18:02.281Z,8.78
2017-09-26T00:19:02.890Z,8.76
2017-09-26T00:20:03.499Z,8.66
2017-09-26T00:21:04.115Z,8.74
2017-09-26T00:22:04.724Z,8.73
2017-09-26T00:23:05.486Z,8.71
2017-09-26T00:24:06.103Z,8.64
2017-09-26T00:25:06.713Z,8.69
2017-09-26T00:26:07.328Z,8.71
2017-09-26T00:27:07.937Z,8.58
2017-09-26T00:28:08.698Z,8.61
2017-09-26T00:29:09.312Z,8.61
2017-09-26T00:30:09.923Z,8.64
2017-09-26T00:31:10.532Z,8.64
2017-09-26T00:32:11.142Z,8.64
2017-09-26T00:33:11.903Z,8.61
2017-09-26T00:34:12.523Z,8.67
2017-09-26T00:35:13.130Z,8.67
2017-09-26T00:36:13.741Z,8.66
2017-09-26T00:37:14.357Z,8.74
2017-09-26T00:38:15.149Z,8.74
2017-09-26T00:39:15.762Z,8.70
2017-09-26T00:40:16.373Z,8.71
2017-09-26T00:41:16.988Z,8.84
2017-09-26T00:42:17.600Z,8.74
2017-09-26T00:43:18.355Z,8.79
2017-09-26T00:44:18.967Z,8.73
2017-09-26T00:45:19.576Z,8.70
2017-09-26T00:46:20.218Z,8.67
2017-09-26T00:47:20.834Z,8.69
2017-09-26T00:48:21.591Z,8.66
2017-09-26T00:49:22.200Z,8.74
2017-09-26T00:50:22.811Z,8.73
2017-09-26T00:51:23.427Z,8.84
2017-09-26T00:52:24.040Z,8.82
2017-09-26T00:53:24.832Z,8.74
2017-09-26T00:54:25.471Z,8.81
2017-09-26T00:55:26.112Z,8.94
2017-09-26T00:56:26.721Z,8.88
2017-09-26T00:57:27.335Z,8.87
2017-09-26T00:58:28.127Z,8.82
2017-09-26T00:59:28.734Z,8.91
2017-09-26T01:00:29.346Z,8.92
2017-09-26T01:01:29.957Z,8.94
2017-09-26T01:02:30.567Z,8.94
2017-09-26T01:03:31.329Z,8.89
2017-09-26T01:04:31.943Z,8.89
2017-09-26T01:05:32.549Z,8.91
2017-09-26T01:06:33.160Z,8.99
2017-09-26T01:07:33.771Z,8.84
2017-09-26T01:08:34.532Z,8.84
2017-09-26T01:09:35.141Z,8.70
2017-09-26T01:10:35.781Z,8.70
2017-09-26T01:11:36.390Z,8.74
2017-09-26T01:12:37.004Z,8.70
2017-09-26T01:13:37.763Z,8.66
2017-09-26T01:14:38.373Z,8.70
2017-09-26T01:15:38.984Z,8.67
2017-09-26T01:16:39.594Z,8.67
2017-09-26T01:17:40.203Z,8.70
2017-09-26T01:18:40.993Z,8.71
2017-09-26T01:19:41.609Z,8.70
2017-09-26T01:20:42.221Z,8.71
2017-09-26T01:21:42.828Z,8.69
2017-09-26T01:22:43.443Z,8.70
2017-09-26T01:23:44.200Z,8.73
2017-09-26T01:24:44.817Z,8.64
2017-09-26T01:25:45.423Z,8.60
2017-09-26T01:26:46.040Z,8.58
2017-09-26T01:27:46.645Z,8.71
2017-09-26T01:28:47.410Z,8.69
2017-09-26T01:29:48.017Z,8.63
2017-09-26T01:30:48.632Z,8.61
2017-09-26T01:31:49.249Z,8.60
2017-09-26T01:32:49.857Z,8.60
2017-09-26T01:33:50.613Z,8.66
2017-09-26T01:34:51.223Z,8.64
2017-09-26T01:35:51.837Z,8.66
2017-09-26T01:36:52.449Z,8.58
2017-09-26T01:37:53.056Z,8.63
2017-09-26T01:38:53.819Z,8.61
2017-09-26T01:39:54.432Z,8.63
2017-09-26T01:40:55.035Z,8.74
2017-09-26T01:41:55.651Z,8.66
2017-09-26T01:42:56.259Z,8.64
2017-09-26T01:43:57.022Z,8.64
2017-09-26T01:44:57.629Z,8.74
2017-09-26T01:45:58.236Z,8.63
2017-09-26T01:46:58.853Z,8.64
2017-09-26T01:47:59.460Z,8.58
2017-09-26T01:49:00.221Z,8.67
2017-09-26T01:50:00.865Z,8.64
2017-09-26T01:51:01.477Z,8.58
2017-09-26T01:52:02.090Z,8.58
2017-09-26T01:53:02.733Z,8.61
2017-09-26T01:54:03.489Z,8.63
2017-09-26T01:55:04.097Z,8.45
2017-09-26T01:56:04.706Z,8.44
2017-09-26T01:57:05.314Z,8.37
2017-09-26T01:58:05.928Z,8.36
2017-09-26T01:59:06.692Z,8.51
2017-09-26T02:00:07.298Z,8.41
2017-09-26T02:01:07.914Z,8.34
2017-09-26T02:02:08.518Z,8.46
2017-09-26T02:03:09.128Z,8.45
2017-09-26T02:04:09.917Z,8.49
2017-09-26T02:05:10.532Z,8.49
2017-09-26T02:06:11.150Z,8.49
2017-09-26T02:07:11.753Z,8.60
2017-09-26T02:08:12.365Z,8.60
2017-09-26T02:09:13.128Z,8.48
2017-09-26T02:10:13.735Z,8.63
2017-09-26T02:11:14.354Z,8.42
2017-09-26T02:12:14.989Z,8.48
2017-09-26T02:13:15.600Z,8.45
2017-09-26T02:14:16.359Z,8.36
2017-09-26T02:15:16.975Z,8.34
2017-09-26T02:16:17.587Z,8.41
2017-09-26T02:17:18.189Z,8.37
2017-09-26T02:18:18.804Z,8.37
2017-09-26T02:19:19.561Z,8.36
2017-09-26T02:20:20.183Z,8.37
2017-09-26T02:21:20.788Z,8.42
2017-09-26T02:22:21.398Z,8.38
2017-09-26T02:23:22.009Z,8.36
2017-09-26T02:24:22.768Z,8.34
2017-09-26T02:25:23.385Z,8.34
2017-09-26T02:26:23.989Z,8.48
2017-09-26T02:27:24.598Z,8.51
2017-09-26T02:28:25.209Z,8.49
2017-09-26T02:29:25.969Z,8.46
2017-09-26T02:30:26.580Z,8.46
2017-09-26T02:31:27.188Z,8.56
2017-09-26T02:32:27.797Z,8.49
2017-09-26T02:33:28.406Z,8.53
2017-09-26T02:34:29.196Z,8.63
2017-09-26T02:35:29.805Z,8.53
2017-09-26T02:36:30.413Z,8.60
2017-09-26T02:37:31.022Z,8.48
2017-09-26T02:38:31.630Z,8.49
2017-09-26T02:39:32.391Z,8.52
2017-09-26T02:40:33.002Z,8.60
2017-09-26T02:41:33.613Z,8.60
2017-09-26T02:42:34.221Z,8.55
2017-09-26T02:43:34.830Z,8.55
2017-09-26T02:44:35.589Z,8.61
2017-09-26T02:45:36.200Z,8.58
2017-09-26T02:46:36.809Z,8.64
2017-09-26T02:47:37.419Z,8.58
2017-09-26T02:48:38.026Z,8.61
2017-09-26T02:49:38.786Z,8.61
2017-09-26T02:50:39.401Z,8.63
2017-09-26T02:51:40.013Z,8.66
2017-09-26T02:52:40.618Z,8.61
2017-09-26T02:53:41.228Z,8.61
2017-09-26T02:54:42.018Z,8.56
2017-09-26T02:55:42.628Z,8.53
2017-09-26T02:56:43.245Z,8.44
2017-09-26T02:57:43.884Z,8.48
2017-09-26T02:58:44.494Z,8.41
2017-09-26T02:59:45.259Z,8.36
2017-09-26T03:00:45.871Z,8.38
2017-09-26T03:01:46.482Z,8.36
2017-09-26T03:02:47.091Z,8.44
2017-09-26T03:03:47.731Z,8.41
2017-09-26T03:04:48.492Z,8.38
2017-09-26T03:05:49.101Z,8.37
2017-09-26T03:06:49.716Z,8.34
2017-09-26T03:07:50.328Z,8.46
2017-09-26T03:08:50.934Z,8.31
2017-09-26T03:09:51.696Z,8.33
2017-09-26T03:10:52.311Z,8.48
2017-09-26T03:11:52.922Z,8.44
2017-09-26T03:12:53.534Z,8.45
2017-09-26T03:13:54.143Z,8.45
2017-09-26T03:14:54.897Z,8.45
2017-09-26T03:15:55.507Z,8.49
2017-09-26T03:16:56.121Z,8.52
2017-09-26T03:17:56.727Z,8.37
2017-09-26T03:18:57.336Z,8.44
2017-09-26T03:19:58.102Z,8.36
2017-09-26T03:20:58.714Z,8.33
2017-09-26T03:21:59.320Z,8.20
2017-09-26T03:22:59.929Z,8.24
2017-09-26T03:24:00.572Z,8.18
2017-09-26T03:25:01.328Z,8.24
2017-09-26T03:26:01.938Z,8.18
2017-09-26T03:27:02.547Z,8.13
2017-09-26T03:28:03.155Z,8.24
2017-09-26T03:29:03.764Z,8.24
2017-09-26T03:30:04.523Z,8.24
2017-09-26T03:31:05.143Z,8.33
2017-09-26T03:32:05.779Z,8.33
2017-09-26T03:33:06.397Z,8.30
2017-09-26T03:34:07.001Z,8.31
2017-09-26T03:35:07.760Z,8.28
2017-09-26T03:36:08.370Z,8.33
2017-09-26T03:37:08.985Z,8.34
2017-09-26T03:38:09.598Z,8.34
2017-09-26T03:39:10.205Z,8.36
2017-09-26T03:40:10.965Z,8.38
2017-09-26T03:41:11.574Z,8.19
2017-09-26T03:42:12.194Z,8.28
2017-09-26T03:43:12.799Z,8.33
2017-09-26T03:44:13.413Z,8.27
2017-09-26T03:45:14.174Z,8.34
2017-09-26T03:46:14.787Z,8.31
2017-09-26T03:47:15.409Z,8.34
2017-09-26T03:48:16.011Z,8.33
2017-09-26T03:49:16.618Z,8.27
2017-09-26T03:50:17.375Z,8.23
2017-09-26T03:51:17.987Z,8.26
2017-09-26T03:52:18.596Z,8.13
2017-09-26T03:53:19.236Z,8.20
2017-09-26T03:54:19.848Z,8.23
2017-09-26T03:55:20.608Z,8.23
2017-09-26T03:56:21.217Z,8.31
2017-09-26T03:57:21.833Z,8.31
2017-09-26T03:58:22.438Z,8.31
2017-09-26T03:59:23.050Z,8.36
2017-09-26T04:00:23.809Z,8.19
2017-09-26T04:01:24.423Z,8.16
2017-09-26T04:02:25.042Z,8.15
2017-09-26T04:03:25.645Z,8.18
2017-09-26T04:04:26.256Z,8.16
2017-09-26T04:05:27.014Z,8.13
2017-09-26T04:06:27.621Z,8.10
2017-09-26T04:07:28.229Z,8.05
2017-09-26T04:08:28.838Z,8.16
2017-09-26T04:09:29.448Z,8.12
2017-09-26T04:10:30.209Z,8.16
2017-09-26T04:11:30.818Z,8.13
2017-09-26T04:12:31.455Z,8.18
2017-09-26T04:13:32.070Z,8.13
2017-09-26T04:14:32.676Z,8.23
2017-09-26T04:15:33.442Z,8.16
2017-09-26T04:16:34.052Z,8.20
2017-09-26T04:17:34.660Z,8.15
2017-09-26T04:18:35.271Z,8.19
2017-09-26T04:19:35.884Z,8.18
2017-09-26T04:20:36.641Z,8.18
2017-09-26T04:21:37.250Z,8.23
2017-09-26T04:22:37.860Z,8.18
2017-09-26T04:23:38.469Z,8.18
2017-09-26T04:24:39.078Z,8.18
2017-09-26T04:25:39.841Z,8.19
2017-09-26T04:26:40.450Z,8.20
2017-09-26T04:27:41.060Z,8.10
2017-09-26T04:28:41.674Z,8.20
2017-09-26T04:29:42.287Z,8.15
2017-09-26T04:30:43.043Z,8.10
2017-09-26T04:31:43.657Z,8.08
2017-09-26T04:32:44.270Z,8.08
2017-09-26T04:33:44.875Z,8.00
2017-09-26T04:34:45.490Z,7.97
2017-09-26T04:35:46.245Z,7.87
2017-09-26T04:36:46.854Z,7.82
2017-09-26T04:37:47.463Z,7.88
2017-09-26T04:38:48.070Z,7.80
2017-09-26T04:39:48.681Z,7.91
2017-09-26T04:40:49.441Z,7.88
2017-09-26T04:41:50.052Z,7.82
2017-09-26T04:42:50.662Z,7.87
2017-09-26T04:43:51.270Z,7.87
2017-09-26T04:44:51.879Z,7.90
2017-09-26T04:45:52.689Z,7.91
2017-09-26T04:46:53.298Z,7.88
2017-09-26T04:47:53.905Z,7.93
2017-09-26T04:48:54.519Z,7.93
2017-09-26T04:49:55.127Z,7.85
2017-09-26T04:50:55.891Z,8.01
2017-09-26T04:51:56.505Z,7.91
2017-09-26T04:52:57.109Z,8.01
2017-09-26T04:53:57.725Z,7.95
2017-09-26T04:54:58.326Z,8.05
2017-09-26T04:55:59.086Z,7.83
2017-09-26T04:56:59.697Z,7.85
2017-09-26T04:58:00.306Z,7.88
2017-09-26T04:59:00.920Z,7.90
2017-09-26T05:00:01.530Z,7.90
2017-09-26T05:01:02.286Z,7.83
2017-09-26T05:02:02.898Z,7.88
2017-09-26T05:03:03.506Z,7.80
2017-09-26T05:04:04.117Z,7.87
2017-09-26T05:05:04.730Z,7.80
2017-09-26T05:06:05.492Z,7.87
2017-09-26T05:07:06.100Z,7.83
2017-09-26T05:08:06.714Z,7.77
2017-09-26T05:09:07.319Z,7.79
2017-09-26T05:10:07.928Z,7.83
2017-09-26T05:11:08.689Z,7.82
2017-09-26T05:12:09.299Z,7.91
2017-09-26T05:13:09.915Z,7.73
2017-09-26T05:14:10.526Z,7.91
2017-09-26T05:15:11.134Z,7.93
2017-09-26T05:16:11.893Z,7.72
2017-09-26T05:17:12.505Z,7.88
2017-09-26T05:18:13.113Z,7.88
2017-09-26T05:19:13.724Z,7.88
2017-09-26T05:20:14.335Z,7.83
2017-09-26T05:21:15.091Z,7.85
2017-09-26T05:22:15.707Z,7.90
2017-09-26T05:23:16.316Z,7.70
2017-09-26T05:24:16.922Z,7.77
2017-09-26T05:25:17.529Z,7.75
2017-09-26T05:26:18.319Z,7.73
2017-09-26T05:27:18.928Z,7.63
2017-09-26T05:28:19.541Z,7.58
2017-09-26T05:29:20.147Z,7.57
2017-09-26T05:30:20.765Z,7.56
2017-09-26T05:31:21.522Z,7.57
2017-09-26T05:32:22.131Z,7.60
2017-09-26T05:33:22.739Z,7.54
2017-09-26T05:34:23.348Z,7.60
2017-09-26T05:35:23.959Z,7.61
2017-09-26T05:36:24.723Z,7.56
2017-09-26T05:37:25.330Z,7.58
2017-09-26T05:38:25.939Z,7.60
2017-09-26T05:39:26.548Z,7.69
2017-09-26T05:40:27.159Z,7.66
2017-09-26T05:41:27.920Z,7.69
2017-09-26T05:42:28.530Z,7.67
2017-09-26T05:43:29.140Z,7.60
2017-09-26T05:44:29.749Z,7.67
2017-09-26T05:45:30.366Z,7.72
2017-09-26T05:46:31.157Z,7.66
2017-09-26T05:47:31.771Z,7.72
2017-09-26T05:48:32.409Z,7.61
2017-09-26T05:49:33.025Z,7.58
2017-09-26T05:50:33.630Z,7.60
2017-09-26T05:51:34.390Z,7.58
2017-09-26T05:52:34.999Z,7.60
2017-09-26T05:53:35.609Z,7.58
2017-09-26T05:54:36.220Z,7.51
2017-09-26T05:55:36.834Z,7.58
2017-09-26T05:56:37.590Z,7.61
2017-09-26T05:57:38.238Z,7.60
2017-09-26T05:58:38.877Z,7.60
2017-09-26T05:59:39.496Z,7.56
2017-09-26T06:00:40.108Z,7.57
2017-09-26T06:01:40.866Z,7.50
2017-09-26T06:02:41.479Z,7.54
2017-09-26T06:03:42.093Z,7.60
2017-09-26T06:04:42.733Z,7.56
2017-09-26T06:05:43.343Z,7.57
2017-09-26T06:06:44.105Z,7.56
2017-09-26T06:07:44.716Z,7.61
2017-09-26T06:08:45.336Z,7.60
2017-09-26T06:09:45.945Z,7.58
2017-09-26T06:10:46.556Z,7.61
2017-09-26T06:11:47.347Z,7.60
2017-09-26T06:12:47.964Z,7.66
2017-09-26T06:13:48.576Z,7.70
2017-09-26T06:14:49.186Z,7.69
2017-09-26T06:15:49.800Z,7.70
2017-09-26T06:16:50.565Z,7.72
2017-09-26T06:17:51.206Z,7.73
2017-09-26T06:18:51.818Z,7.69
2017-09-26T06:19:52.427Z,7.73
2017-09-26T06:20:53.038Z,7.75
2017-09-26T06:21:53.802Z,7.72
2017-09-26T06:22:54.409Z,7.75
2017-09-26T06:23:55.024Z,7.72
2017-09-26T06:24:55.632Z,7.76
2017-09-26T06:25:56.248Z,7.75
2017-09-26T06:26:57.007Z,7.75
2017-09-26T06:27:57.616Z,7.79
2017-09-26T06:28:58.233Z,7.75
2017-09-26T06:29:58.838Z,7.77
2017-09-26T06:30:59.476Z,7.77
2017-09-26T06:32:00.242Z,7.76
2017-09-26T06:33:00.857Z,7.75
2017-09-26T06:34:01.501Z,7.75
2017-09-26T06:35:02.142Z,7.77
2017-09-26T06:36:02.752Z,7.73
2017-09-26T06:37:03.517Z,7.76
2017-09-26T06:38:04.125Z,7.75
2017-09-26T06:39:04.739Z,7.77
2017-09-26T06:40:05.360Z,7.88
2017-09-26T06:41:05.968Z,7.85
2017-09-26T06:42:06.726Z,7.88
2017-09-26T06:43:07.337Z,7.88
2017-09-26T06:44:07.948Z,7.93
2017-09-26T06:45:08.563Z,7.95
2017-09-26T06:46:09.169Z,7.95
2017-09-26T06:47:09.933Z,8.08
2017-09-26T06:48:10.540Z,8.08
2017-09-26T06:49:11.157Z,8.03
2017-09-26T06:50:11.763Z,8.10
2017-09-26T06:51:12.378Z,8.06
2017-09-26T06:52:13.135Z,8.15
2017-09-26T06:53:13.745Z,8.26
2017-09-26T06:54:14.353Z,8.23
2017-09-26T06:55:14.964Z,8.26
2017-09-26T06:56:15.574Z,8.33
2017-09-26T06:57:16.185Z,8.33
2017-09-26T06:58:16.794Z,8.34
2017-09-26T06:59:17.554Z,8.37
2017-09-26T07:00:18.193Z,8.33
2017-09-26T07:01:18.809Z,8.38
2017-09-26T07:02:19.420Z,8.44
2017-09-26T07:03:20.031Z,8.49
2017-09-26T07:04:20.792Z,8.53
2017-09-26T07:05:21.411Z,8.53
2017-09-26T07:06:22.026Z,8.46
2017-09-26T07:07:22.636Z,8.38
2017-09-26T07:08:23.248Z,8.37
2017-09-26T07:09:23.862Z,8.27
2017-09-26T07:10:24.724Z,8.26
2017-09-26T07:11:25.336Z,8.28
2017-09-26T07:12:25.948Z,8.26
2017-09-26T07:13:26.566Z,8.19
2017-09-26T07:14:27.175Z,8.13
2017-09-26T07:15:27.894Z,8.09
2017-09-26T07:16:28.501Z,8.06
2017-09-26T07:17:29.117Z,8.10
2017-09-26T07:18:29.726Z,8.01
2017-09-26T07:19:30.338Z,8.08
2017-09-26T07:20:31.052Z,8.10
2017-09-26T07:21:31.665Z,8.08
2017-09-26T07:22:32.314Z,8.15
2017-09-26T07:23:32.929Z,8.16
2017-09-26T07:24:33.544Z,8.18
2017-09-26T07:25:34.256Z,8.24
2017-09-26T07:26:34.895Z,8.31
2017-09-26T07:27:35.506Z,8.28
2017-09-26T07:28:36.118Z,8.26
2017-09-26T07:29:36.734Z,8.19
2017-09-26T07:30:37.444Z,8.24
2017-09-26T07:31:38.056Z,8.18
2017-09-26T07:32:38.668Z,8.33
2017-09-26T07:33:39.280Z,8.27
2017-09-26T07:34:39.891Z,8.34
2017-09-26T07:35:40.607Z,8.36
2017-09-26T07:36:41.218Z,8.28
2017-09-26T07:37:41.835Z,8.23
2017-09-26T07:38:42.443Z,8.28
2017-09-26T07:39:43.061Z,8.31
2017-09-26T07:40:43.771Z,8.31
2017-09-26T07:41:44.418Z,8.30
2017-09-26T07:42:45.027Z,8.33
2017-09-26T07:43:45.639Z,8.34
2017-09-26T07:44:46.256Z,8.31
2017-09-26T07:45:46.972Z,8.31
2017-09-26T07:46:47.583Z,8.42
2017-09-26T07:47:48.198Z,8.36
2017-09-26T07:48:48.806Z,8.45
2017-09-26T07:49:49.420Z,8.53
2017-09-26T07:50:50.134Z,8.58
2017-09-26T07:51:50.747Z,8.56
2017-09-26T07:52:51.358Z,8.61
2017-09-26T07:53:51.971Z,8.66
2017-09-26T07:54:52.584Z,8.69
2017-09-26T07:55:53.294Z,8.58
2017-09-26T07:56:53.907Z,8.70
2017-09-26T07:57:54.518Z,8.69
2017-09-26T07:58:55.166Z,8.87
2017-09-26T07:59:55.776Z,8.91
2017-09-26T08:00:56.491Z,8.89
2017-09-26T08:01:57.108Z,8.92
2017-09-26T08:02:57.716Z,8.89
2017-09-26T08:03:58.329Z,8.88
2017-09-26T08:04:58.945Z,9.00
2017-09-26T08:05:59.661Z,8.94
2017-09-26T08:07:00.269Z,8.99
2017-09-26T08:08:00.885Z,8.95
2017-09-26T08:09:01.501Z,8.84
2017-09-26T08:10:02.120Z,8.92
2017-09-26T08:11:02.829Z,8.91
2017-09-26T08:12:03.449Z,8.99
2017-09-26T08:13:04.056Z,8.97
2017-09-26T08:14:04.670Z,8.97
2017-09-26T08:15:05.281Z,9.03
2017-09-26T08:16:06.091Z,8.95
2017-09-26T08:17:06.706Z,9.04
2017-09-26T08:18:07.318Z,8.99
2017-09-26T08:19:07.933Z,8.97
2017-09-26T08:20:08.577Z,9.03
2017-09-26T08:21:09.387Z,9.06
2017-09-26T08:22:10.000Z,9.03
2017-09-26T08:23:10.611Z,9.13
2017-09-26T08:24:11.224Z,9.14
2017-09-26T08:25:11.837Z,9.25
2017-09-26T08:26:12.603Z,9.19
2017-09-26T08:27:13.244Z,9.37
2017-09-26T08:28:13.855Z,9.34
2017-09-26T08:29:14.469Z,9.44
2017-09-26T08:30:15.083Z,9.39
2017-09-26T08:31:15.852Z,9.51
2017-09-26T08:32:16.462Z,9.58
2017-09-26T08:33:17.075Z,9.66
2017-09-26T08:34:17.692Z,9.74
2017-09-26T08:35:18.302Z,9.77
2017-09-26T08:36:19.163Z,9.83
2017-09-26T08:37:19.782Z,9.91
2017-09-26T08:38:20.394Z,9.91
2017-09-26T08:39:21.014Z,9.89
2017-09-26T08:40:21.622Z,9.80
2017-09-26T08:41:22.465Z,9.97
2017-09-26T08:42:23.085Z,9.98
2017-09-26T08:43:23.701Z,10.16
2017-09-26T08:44:24.318Z,10.19
2017-09-26T08:45:24.928Z,10.19
2017-09-26T08:46:25.744Z,10.34
2017-09-26T08:47:26.358Z,10.35
2017-09-26T08:48:26.978Z,10.49
2017-09-26T08:49:27.591Z,10.59
2017-09-26T08:50:28.202Z,10.67
2017-09-26T08:51:28.968Z,10.79
2017-09-26T08:52:29.588Z,11.08
2017-09-26T08:53:30.206Z,11.27
2017-09-26T08:54:30.815Z,11.37
2017-09-26T08:55:31.430Z,11.41
2017-09-26T08:56:32.194Z,11.44
2017-09-26T08:57:32.810Z,11.50
2017-09-26T08:58:33.423Z,11.66
2017-09-26T08:59:34.038Z,11.73
2017-09-26T09:00:34.660Z,11.66
2017-09-26T09:01:35.454Z,11.63
2017-09-26T09:02:36.074Z,11.55
2017-09-26T09:03:36.686Z,11.59
2017-09-26T09:04:37.307Z,11.54
2017-09-26T09:05:37.924Z,11.63
2017-09-26T09:06:38.718Z,11.63
2017-09-26T09:07:39.364Z,11.73
2017-09-26T09:08:39.985Z,11.83
2017-09-26T09:09:40.598Z,11.84
2017-09-26T09:10:41.219Z,11.72
2017-09-26T09:11:41.979Z,11.68
2017-09-26T09:12:42.628Z,11.47
2017-09-26T09:13:43.244Z,11.63
2017-09-26T09:14:43.857Z,11.50
2017-09-26T09:15:44.472Z,11.50
2017-09-26T09:16:45.241Z,11.45
2017-09-26T09:17:45.854Z,11.43
2017-09-26T09:18:46.467Z,11.50
2017-09-26T09:19:47.088Z,11.43
2017-09-26T09:20:47.701Z,11.44
2017-09-26T09:21:48.465Z,11.29
2017-09-26T09:22:49.087Z,11.36
2017-09-26T09:23:49.700Z,11.36
2017-09-26T09:24:50.320Z,11.35
2017-09-26T09:25:50.937Z,11.35
2017-09-26T09:26:51.700Z,11.37
2017-09-26T09:27:52.314Z,11.33
2017-09-26T09:28:52.930Z,11.35
2017-09-26T09:29:53.554Z,11.43
2017-09-26T09:30:54.162Z,11.41
2017-09-26T09:31:54.958Z,11.43
2017-09-26T09:32:55.572Z,11.51
2017-09-26T09:33:56.192Z,11.48
2017-09-26T09:34:56.805Z,11.48
2017-09-26T09:35:57.421Z,11.32
2017-09-26T09:36:58.218Z,11.18
2017-09-26T09:37:58.800Z,10.96
2017-09-26T09:38:59.413Z,10.87
2017-09-26T09:40:00.030Z,10.90
2017-09-26T09:41:00.643Z,10.78
2017-09-26T09:42:01.413Z,10.67
2017-09-26T09:43:02.030Z,10.60
2017-09-26T09:44:02.642Z,10.56
2017-09-26T09:45:03.258Z,10.59
2017-09-26T09:46:03.878Z,10.69
2017-09-26T09:47:04.645Z,10.72
2017-09-26T09:48:05.258Z,10.87
2017-09-26T09:49:05.872Z,10.99
2017-09-26T09:50:06.494Z,10.87
2017-09-26T09:51:07.109Z,10.94
2017-09-26T09:52:07.873Z,10.92
2017-09-26T09:53:08.492Z,10.94
2017-09-26T09:54:09.109Z,10.90
2017-09-26T09:55:09.722Z,10.78
2017-09-26T09:56:10.335Z,10.71
2017-09-26T09:57:11.101Z,10.51
2017-09-26T09:58:11.746Z,10.46
2017-09-26T09:59:12.362Z,10.25
2017-09-26T10:00:12.983Z,10.33
2017-09-26T10:01:13.594Z,10.31
2017-09-26T10:02:14.362Z,10.17
2017-09-26T10:03:14.976Z,10.20
2017-09-26T10:04:15.588Z,10.20
2017-09-26T10:05:16.201Z,10.30
2017-09-26T10:06:16.820Z,10.37
2017-09-26T10:07:17.582Z,10.51
2017-09-26T10:08:18.201Z,10.54
2017-09-26T10:09:18.812Z,10.67
2017-09-26T10:10:19.428Z,10.60
2017-09-26T10:11:20.049Z,10.59
2017-09-26T10:12:20.842Z,10.61
2017-09-26T10:13:21.459Z,10.57
2017-09-26T10:14:22.074Z,10.59
2017-09-26T10:15:22.686Z,10.74
2017-09-26T10:16:23.302Z,10.68
2017-09-26T10:17:24.096Z,10.75
2017-09-26T10:18:24.718Z,10.87
2017-09-26T10:19:25.334Z,10.76
2017-09-26T10:20:25.946Z,10.93
2017-09-26T10:21:26.559Z,10.90
2017-09-26T10:22:27.324Z,10.94
2017-09-26T10:23:27.945Z,10.89
2017-09-26T10:24:28.561Z,10.81
2017-09-26T10:25:29.179Z,10.79
2017-09-26T10:26:29.790Z,10.69
2017-09-26T10:27:30.554Z,10.71
2017-09-26T10:28:31.171Z,10.61
2017-09-26T10:29:31.788Z,10.71
2017-09-26T10:30:32.399Z,10.75
2017-09-26T10:31:33.019Z,10.90
2017-09-26T10:32:33.813Z,10.84
2017-09-26T10:33:34.427Z,10.78
2017-09-26T10:34:35.047Z,10.78
2017-09-26T10:35:35.656Z,10.69
2017-09-26T10:36:36.272Z,10.74
2017-09-26T10:37:37.070Z,10.75
2017-09-26T10:38:37.686Z,10.90
2017-09-26T10:39:38.304Z,10.90
2017-09-26T10:40:38.916Z,10.89
2017-09-26T10:41:39.532Z,10.97
2017-09-26T10:42:40.297Z,10.96
2017-09-26T10:43:40.913Z,10.96
2017-09-26T10:44:41.528Z,11.15
2017-09-26T10:45:42.143Z,11.26
2017-09-26T10:46:42.763Z,11.30
2017-09-26T10:47:43.526Z,11.29
2017-09-26T10:48:44.140Z,11.32
2017-09-26T10:49:44.755Z,11.33
2017-09-26T10:50:45.369Z,11.41
2017-09-26T10:51:45.983Z,11.54
2017-09-26T10:52:46.804Z,11.54
2017-09-26T10:53:47.419Z,11.77
2017-09-26T10:54:48.030Z,11.84
2017-09-26T10:55:48.651Z,12.00
2017-09-26T10:56:49.264Z,12.04
2017-09-26T10:57:50.029Z,12.07
2017-09-26T10:58:50.642Z,12.17
2017-09-26T10:59:51.259Z,12.18
2017-09-26T11:00:51.875Z,12.20
2017-09-26T11:01:52.488Z,12.18
2017-09-26T11:02:53.262Z,12.07
2017-09-26T11:03:53.873Z,12.09
2017-09-26T11:04:54.493Z,12.17
2017-09-26T11:05:55.111Z,12.06
2017-09-26T11:06:55.724Z,12.17
2017-09-26T11:07:56.538Z,12.22
2017-09-26T11:08:57.160Z,12.21
2017-09-26T11:09:57.805Z,12.28
2017-09-26T11:10:58.420Z,12.20
2017-09-26T11:11:59.039Z,12.17
2017-09-26T11:12:59.803Z,12.09
2017-09-26T11:14:00.419Z,12.09
2017-09-26T11:15:01.033Z,12.03
2017-09-26T11:16:01.650Z,12.10
2017-09-26T11:17:02.267Z,12.10
2017-09-26T11:18:03.030Z,12.15
2017-09-26T11:19:03.647Z,12.22
2017-09-26T11:20:04.262Z,12.25
2017-09-26T11:21:04.879Z,12.27
2017-09-26T11:22:05.492Z,12.25
2017-09-26T11:23:06.258Z,12.35
2017-09-26T11:24:06.876Z,12.29
2017-09-26T11:25:07.489Z,12.36
2017-09-26T11:26:08.104Z,12.43
2017-09-26T11:27:08.718Z,12.47
2017-09-26T11:28:09.487Z,12.58
2017-09-26T11:29:10.107Z,12.58
2017-09-26T11:30:10.727Z,12.55
2017-09-26T11:31:11.337Z,12.57
2017-09-26T11:32:11.954Z,12.55
2017-09-26T11:33:12.719Z,12.50
2017-09-26T11:34:13.365Z,12.50
2017-09-26T11:35:13.981Z,12.47
2017-09-26T11:36:14.597Z,12.57
2017-09-26T11:37:15.213Z,12.57
2017-09-26T11:38:15.978Z,12.55
2017-09-26T11:39:16.593Z,12.70
2017-09-26T11:40:17.214Z,12.61
2017-09-26T11:41:17.826Z,12.60
2017-09-26T11:42:18.447Z,12.46
2017-09-26T11:43:19.212Z,12.53
2017-09-26T11:44:19.827Z,12.55
2017-09-26T11:45:20.449Z,12.57
2017-09-26T11:46:21.064Z,12.54
2017-09-26T11:47:21.679Z,12.57
2017-09-26T11:48:22.445Z,12.53
2017-09-26T11:49:23.066Z,12.43
2017-09-26T11:50:23.716Z,12.47
2017-09-26T11:51:24.365Z,12.54
2017-09-26T11:52:24.979Z,12.47
2017-09-26T11:53:25.744Z,12.46
2017-09-26T11:54:26.365Z,12.57
2017-09-26T11:55:26.985Z,12.67
2017-09-26T11:56:27.602Z,12.73
2017-09-26T11:57:28.217Z,12.72
2017-09-26T11:58:29.014Z,12.85
2017-09-26T11:59:29.635Z,12.91
2017-09-26T12:00:30.249Z,12.97
2017-09-26T12:01:30.865Z,13.00
2017-09-26T12:02:31.497Z,12.95
2017-09-26T12:03:32.257Z,13.04
2017-09-26T12:04:32.868Z,13.11
2017-09-26T12:05:33.483Z,13.09
2017-09-26T12:06:34.099Z,13.03
2017-09-26T12:07:34.722Z,13.01
2017-09-26T12:08:35.510Z,13.04
2017-09-26T12:09:36.155Z,12.95
2017-09-26T12:10:36.780Z,12.94
2017-09-26T12:11:37.426Z,12.97
2017-09-26T12:12:38.042Z,13.05
2017-09-26T12:13:38.808Z,13.19
2017-09-26T12:14:39.425Z,13.01
2017-09-26T12:15:40.041Z,13.15
2017-09-26T12:16:40.687Z,13.01
2017-09-26T12:17:41.340Z,13.13
2017-09-26T12:18:42.103Z,13.16
2017-09-26T12:19:42.726Z,13.12
2017-09-26T12:20:43.338Z,13.11
2017-09-26T12:21:43.954Z,13.27
2017-09-26T12:22:44.600Z,13.30
2017-09-26T12:23:45.372Z,13.35
2017-09-26T12:24:45.986Z,13.30
2017-09-26T12:25:46.601Z,13.27
2017-09-26T12:26:47.224Z,13.46
2017-09-26T12:27:47.843Z,13.50
2017-09-26T12:28:48.606Z,13.57
2017-09-26T12:29:49.221Z,13.63
2017-09-26T12:30:49.843Z,13.68
2017-09-26T12:31:50.456Z,13.75
2017-09-26T12:32:51.073Z,13.62
2017-09-26T12:33:51.840Z,13.71
2017-09-26T12:34:52.458Z,13.67
2017-09-26T12:35:53.073Z,13.67
2017-09-26T12:36:53.688Z,13.57
2017-09-26T12:37:54.310Z,13.53
2017-09-26T12:38:55.112Z,13.46
2017-09-26T12:39:55.766Z,13.62
2017-09-26T12:40:56.379Z,13.57
2017-09-26T12:41:56.997Z,13.52
2017-09-26T12:42:57.612Z,13.31
2017-09-26T12:43:58.377Z,13.25
2017-09-26T12:44:58.996Z,13.20
2017-09-26T12:45:59.612Z,13.22
2017-09-26T12:47:00.227Z,13.23
2017-09-26T12:48:00.873Z,13.23
2017-09-26T12:49:01.641Z,13.44
2017-09-26T12:50:02.258Z,13.42
2017-09-26T12:51:02.911Z,13.37
2017-09-26T12:52:03.521Z,13.37
2017-09-26T12:53:04.137Z,13.35
2017-09-26T12:54:04.904Z,13.37
2017-09-26T12:55:05.524Z,13.37
2017-09-26T12:56:06.141Z,13.25
2017-09-26T12:57:06.764Z,13.15
2017-09-26T12:58:07.375Z,13.15
2017-09-26T12:59:08.140Z,13.08
2017-09-26T13:00:08.758Z,13.05
2017-09-26T13:01:09.379Z,13.28
2017-09-26T13:02:09.992Z,13.27
2017-09-26T13:03:10.613Z,13.35
2017-09-26T13:04:11.376Z,13.53
2017-09-26T13:05:11.994Z,13.59
2017-09-26T13:06:12.610Z,13.68
2017-09-26T13:07:13.225Z,13.68
2017-09-26T13:08:13.874Z,13.78
2017-09-26T13:09:14.733Z,13.72
2017-09-26T13:10:15.342Z,13.74
2017-09-26T13:11:15.954Z,13.79
2017-09-26T13:12:16.574Z,13.83
2017-09-26T13:13:17.196Z,13.89
2017-09-26T13:14:17.960Z,13.95
2017-09-26T13:15:18.578Z,13.90
2017-09-26T13:16:19.193Z,13.89
2017-09-26T13:17:19.811Z,13.97
2017-09-26T13:18:20.429Z,13.93